This is the latest recevied weather packets stored in our database for station/object DJ4RO-13. If no packets are shown the sender has not sent any weather packets the latest 10 day(s).
| Time | Temp. | Humidity | Pressure | Rain* | Wind** | Luminosity | Snow |
|---|---|---|---|---|---|---|---|
| 1777267101 | 5° C | 73% | 1029.5 hPa | 0 mm | - | 52 W/m² | - |
| 1777266781 | 2.78° C | 81% | 1029.6 hPa | 0 mm | - | 48 W/m² | - |
| 1777266461 | 1.67° C | 89% | 1029.7 hPa | 0 mm | - | 45 W/m² | - |
| 1777266142 | 0.56° C | 92% | 1029.7 hPa | 0 mm | - | 53 W/m² | - |
| 1777265821 | 0.56° C | 94% | 1029.4 hPa | 0 mm | - | 25 W/m² | - |
| 1777265501 | 0° C | 94% | 1029.5 hPa | 0 mm | - | 26 W/m² | - |
| 1777265181 | 0° C | 95% | 1029.5 hPa | 0 mm | - | 22 W/m² | - |
| 1777264862 | 0° C | 97% | 1029.5 hPa | 0 mm | - | 22 W/m² | - |
| 1777264541 | -0.56° C | 97% | 1029.3 hPa | 0 mm | - | 20 W/m² | - |
| 1777264221 | -1.11° C | 97% | 1029.3 hPa | 0 mm | - | 17 W/m² | - |
| 1777263901 | -1.67° C | 97% | 1029.3 hPa | 0 mm | - | 15 W/m² | - |
| 1777263581 | -1.67° C | 97% | 1029.4 hPa | 0 mm | - | 13 W/m² | - |
| 1777263245 | -1.11° C | 97% | 1029.2 hPa | 0 mm | - | 11 W/m² | - |
| 1777262926 | -1.11° C | 97% | 1029.1 hPa | 0 mm | - | 10 W/m² | - |
| 1777262616 | -1.11° C | 96% | 1029.4 hPa | 0 mm | - | 8 W/m² | - |
| 1777262313 | -1.11° C | 96% | 1029.5 hPa | 0 mm | - | 6 W/m² | - |
| 1777262012 | -1.11° C | 96% | 1029.1 hPa | 0 mm | - | 4 W/m² | - |
| 1777261713 | -1.11° C | 96% | 1029.3 hPa | 0 mm | - | 3 W/m² | - |
| 1777261352 | -1.11° C | 96% | 1029.3 hPa | 0 mm | - | 2 W/m² | - |
| 1777261052 | -1.67° C | 96% | 1029.5 hPa | 0 mm | - | 1 W/m² | - |
| 1777260752 | -1.11° C | 96% | 1029.4 hPa | 0 mm | - | 1 W/m² | - |
| 1777260392 | -1.11° C | 96% | 1029.4 hPa | 0 mm | - | 0 W/m² | - |
| 1777260077 | -1.11° C | 96% | 1029.3 hPa | 0 mm | - | 0 W/m² | - |
| 1777259757 | -1.67° C | 95% | 1029.3 hPa | 0 mm | - | 0 W/m² | - |
| 1777259432 | -1.11° C | 95% | 1029.5 hPa | 0 mm | - | 0 W/m² | - |
* Rain latest hour (hover to see other rain measurements)
** Current wind speed in m/s (hover to see current wind gust speed)